sensor_id;sensor_type;location;lat;lon;timestamp;temperature;humidity
51035;DHT22;37062;52.546;13.230;2024-03-23T00:54:34;11.20;99.90
51035;DHT22;37062;52.546;13.230;2024-03-23T00:57:01;11.20;99.90
51035;DHT22;37062;52.546;13.230;2024-03-23T00:59:27;11.20;99.90
51035;DHT22;37062;52.546;13.230;2024-03-23T01:01:54;11.20;99.90
51035;DHT22;37062;52.546;13.230;2024-03-23T01:04:21;11.20;99.90
51035;DHT22;37062;52.546;13.230;2024-03-23T01:06:48;11.20;99.90
51035;DHT22;37062;52.546;13.230;2024-03-23T01:09:15;11.20;99.90
51035;DHT22;37062;52.546;13.230;2024-03-23T01:11:43;11.20;99.90
51035;DHT22;37062;52.546;13.230;2024-03-23T01:14:10;11.20;99.90
51035;DHT22;37062;52.546;13.230;2024-03-23T01:16:37;11.20;99.90
51035;DHT22;37062;52.546;13.230;2024-03-23T01:19:03;11.20;99.90
51035;DHT22;37062;52.546;13.230;2024-03-23T01:21:31;11.20;99.90
51035;DHT22;37062;52.546;13.230;2024-03-23T01:23:58;11.20;99.90
51035;DHT22;37062;52.546;13.230;2024-03-23T01:26:25;11.20;99.90
51035;DHT22;37062;52.546;13.230;2024-03-23T01:28:53;11.20;99.90
51035;DHT22;37062;52.546;13.230;2024-03-23T01:31:20;11.20;99.90
51035;DHT22;37062;52.546;13.230;2024-03-23T01:33:46;11.20;99.90
51035;DHT22;37062;52.546;13.230;2024-03-23T01:36:14;11.20;99.90
51035;DHT22;37062;52.546;13.230;2024-03-23T01:38:40;11.20;99.90
51035;DHT22;37062;52.546;13.230;2024-03-23T01:41:07;11.20;99.90
51035;DHT22;37062;52.546;13.230;2024-03-23T01:43:33;11.20;99.90
51035;DHT22;37062;52.546;13.230;2024-03-23T01:46:03;11.20;99.90
51035;DHT22;37062;52.546;13.230;2024-03-23T01:48:29;11.10;99.90
51035;DHT22;37062;52.546;13.230;2024-03-23T01:50:56;11.20;99.90
51035;DHT22;37062;52.546;13.230;2024-03-23T01:53:23;11.20;99.90
51035;DHT22;37062;52.546;13.230;2024-03-23T01:55:51;11.10;99.90
51035;DHT22;37062;52.546;13.230;2024-03-23T01:58:17;11.10;99.90
51035;DHT22;37062;52.546;13.230;2024-03-23T02:00:45;11.10;99.90
51035;DHT22;37062;52.546;13.230;2024-03-23T02:03:27;11.10;99.90
51035;DHT22;37062;52.546;13.230;2024-03-23T02:05:56;11.10;99.90
51035;DHT22;37062;52.546;13.230;2024-03-23T02:08:23;11.10;99.90
51035;DHT22;37062;52.546;13.230;2024-03-23T02:10:51;11.10;99.90
51035;DHT22;37062;52.546;13.230;2024-03-23T02:13:21;11.20;99.90
51035;DHT22;37062;52.546;13.230;2024-03-23T02:15:48;11.10;99.90
51035;DHT22;37062;52.546;13.230;2024-03-23T02:18:15;11.10;99.90
51035;DHT22;37062;52.546;13.230;2024-03-23T02:20:44;11.10;99.90
51035;DHT22;37062;52.546;13.230;2024-03-23T02:23:14;11.10;99.90
51035;DHT22;37062;52.546;13.230;2024-03-23T02:25:42;11.00;99.90
51035;DHT22;37062;52.546;13.230;2024-03-23T02:28:08;11.00;99.90
51035;DHT22;37062;52.546;13.230;2024-03-23T02:30:36;11.00;99.90
51035;DHT22;37062;52.546;13.230;2024-03-23T02:33:02;11.00;99.90
51035;DHT22;37062;52.546;13.230;2024-03-23T02:35:30;11.00;99.90
51035;DHT22;37062;52.546;13.230;2024-03-23T02:37:57;11.00;99.90
51035;DHT22;37062;52.546;13.230;2024-03-23T02:40:28;11.00;99.90
51035;DHT22;37062;52.546;13.230;2024-03-23T02:42:54;11.00;99.90
51035;DHT22;37062;52.546;13.230;2024-03-23T02:45:22;11.00;99.90
51035;DHT22;37062;52.546;13.230;2024-03-23T02:47:48;11.00;99.90
51035;DHT22;37062;52.546;13.230;2024-03-23T02:50:18;10.90;99.90
51035;DHT22;37062;52.546;13.230;2024-03-23T02:52:44;10.90;99.90
51035;DHT22;37062;52.546;13.230;2024-03-23T02:55:12;10.80;99.90
51035;DHT22;37062;52.546;13.230;2024-03-23T02:57:39;10.80;99.90
51035;DHT22;37062;52.546;13.230;2024-03-23T03:00:08;10.80;99.90
51035;DHT22;37062;52.546;13.230;2024-03-23T03:02:35;10.80;99.90
51035;DHT22;37062;52.546;13.230;2024-03-23T03:05:04;10.80;99.90
51035;DHT22;37062;52.546;13.230;2024-03-23T03:07:31;10.80;99.90
51035;DHT22;37062;52.546;13.230;2024-03-23T03:09:58;10.80;99.90
51035;DHT22;37062;52.546;13.230;2024-03-23T03:12:25;10.80;99.90
51035;DHT22;37062;52.546;13.230;2024-03-23T03:14:54;10.70;99.90
51035;DHT22;37062;52.546;13.230;2024-03-23T03:17:20;10.70;99.90
51035;DHT22;37062;52.546;13.230;2024-03-23T03:19:50;10.70;99.90
51035;DHT22;37062;52.546;13.230;2024-03-23T03:22:22;10.70;99.90
51035;DHT22;37062;52.546;13.230;2024-03-23T03:24:49;10.70;99.90
51035;DHT22;37062;52.546;13.230;2024-03-23T03:27:16;10.70;99.90
51035;DHT22;37062;52.546;13.230;2024-03-23T03:29:43;10.70;99.90
51035;DHT22;37062;52.546;13.230;2024-03-23T03:32:11;10.70;99.90
51035;DHT22;37062;52.546;13.230;2024-03-23T03:34:41;10.70;99.90
51035;DHT22;37062;52.546;13.230;2024-03-23T03:37:15;10.70;99.90
51035;DHT22;37062;52.546;13.230;2024-03-23T03:39:42;10.70;99.90
51035;DHT22;37062;52.546;13.230;2024-03-23T03:42:09;10.70;99.90
51035;DHT22;37062;52.546;13.230;2024-03-23T03:44:36;10.80;99.90
51035;DHT22;37062;52.546;13.230;2024-03-23T03:47:03;10.40;99.90
51035;DHT22;37062;52.546;13.230;2024-03-23T03:49:32;10.40;99.90
51035;DHT22;37062;52.546;13.230;2024-03-23T03:51:59;10.40;99.90
51035;DHT22;37062;52.546;13.230;2024-03-23T03:54:27;10.40;99.90
51035;DHT22;37062;52.546;13.230;2024-03-23T03:56:53;10.30;99.90
51035;DHT22;37062;52.546;13.230;2024-03-23T03:59:20;10.40;99.90
51035;DHT22;37062;52.546;13.230;2024-03-23T04:01:47;10.40;99.90
51035;DHT22;37062;52.546;13.230;2024-03-23T04:04:15;10.40;99.90
51035;DHT22;37062;52.546;13.230;2024-03-23T04:06:44;10.40;99.90
51035;DHT22;37062;52.546;13.230;2024-03-23T04:09:11;10.40;99.90
51035;DHT22;37062;52.546;13.230;2024-03-23T04:11:38;10.40;99.90
51035;DHT22;37062;52.546;13.230;2024-03-23T04:14:05;10.40;99.90
51035;DHT22;37062;52.546;13.230;2024-03-23T04:16:34;10.50;99.90
51035;DHT22;37062;52.546;13.230;2024-03-23T04:19:02;10.50;99.90
51035;DHT22;37062;52.546;13.230;2024-03-23T04:21:28;10.50;99.90
51035;DHT22;37062;52.546;13.230;2024-03-23T04:23:57;10.50;99.90
51035;DHT22;37062;52.546;13.230;2024-03-23T04:26:23;10.40;99.90
51035;DHT22;37062;52.546;13.230;2024-03-23T04:28:51;10.40;99.90
51035;DHT22;37062;52.546;13.230;2024-03-23T04:31:17;10.30;99.90
51035;DHT22;37062;52.546;13.230;2024-03-23T04:33:44;10.30;99.90
51035;DHT22;37062;52.546;13.230;2024-03-23T04:36:11;10.30;99.90
51035;DHT22;37062;52.546;13.230;2024-03-23T04:38:38;10.30;99.90
51035;DHT22;37062;52.546;13.230;2024-03-23T04:41:07;10.20;99.90
51035;DHT22;37062;52.546;13.230;2024-03-23T04:43:34;10.20;99.90
51035;DHT22;37062;52.546;13.230;2024-03-23T04:46:02;10.30;99.90
51035;DHT22;37062;52.546;13.230;2024-03-23T04:48:29;10.30;99.90
51035;DHT22;37062;52.546;13.230;2024-03-23T04:50:58;10.20;99.90
51035;DHT22;37062;52.546;13.230;2024-03-23T04:53:25;10.20;99.90
51035;DHT22;37062;52.546;13.230;2024-03-23T04:55:55;10.20;99.90
51035;DHT22;37062;52.546;13.230;2024-03-23T04:58:24;10.10;99.90
51035;DHT22;37062;52.546;13.230;2024-03-23T05:00:53;10.10;99.90
51035;DHT22;37062;52.546;13.230;2024-03-23T05:03:21;10.00;99.90
51035;DHT22;37062;52.546;13.230;2024-03-23T05:05:48;10.00;99.90
51035;DHT22;37062;52.546;13.230;2024-03-23T05:08:15;10.00;99.90
51035;DHT22;37062;52.546;13.230;2024-03-23T05:10:42;10.00;99.90
51035;DHT22;37062;52.546;13.230;2024-03-23T05:13:09;10.00;99.90
51035;DHT22;37062;52.546;13.230;2024-03-23T05:15:37;9.90;99.90
51035;DHT22;37062;52.546;13.230;2024-03-23T05:18:05;9.90;99.90
51035;DHT22;37062;52.546;13.230;2024-03-23T05:20:32;9.90;99.90
51035;DHT22;37062;52.546;13.230;2024-03-23T05:22:59;9.90;99.90
51035;DHT22;37062;52.546;13.230;2024-03-23T05:25:26;9.90;99.90
51035;DHT22;37062;52.546;13.230;2024-03-23T05:27:53;9.90;99.90
51035;DHT22;37062;52.546;13.230;2024-03-23T05:30:19;10.00;99.90
51035;DHT22;37062;52.546;13.230;2024-03-23T05:32:48;10.00;99.90
51035;DHT22;37062;52.546;13.230;2024-03-23T05:35:14;10.00;99.90
51035;DHT22;37062;52.546;13.230;2024-03-23T05:37:42;9.90;99.90
51035;DHT22;37062;52.546;13.230;2024-03-23T05:40:11;10.00;99.90
51035;DHT22;37062;52.546;13.230;2024-03-23T05:42:40;9.90;99.90
51035;DHT22;37062;52.546;13.230;2024-03-23T05:45:08;9.90;99.90
51035;DHT22;37062;52.546;13.230;2024-03-23T05:47:34;9.90;99.90
51035;DHT22;37062;52.546;13.230;2024-03-23T05:50:03;9.90;99.90
51035;DHT22;37062;52.546;13.230;2024-03-23T05:52:31;9.90;99.90
51035;DHT22;37062;52.546;13.230;2024-03-23T05:54:59;9.90;99.90
51035;DHT22;37062;52.546;13.230;2024-03-23T05:57:25;9.90;99.90
51035;DHT22;37062;52.546;13.230;2024-03-23T05:59:53;9.90;99.90
51035;DHT22;37062;52.546;13.230;2024-03-23T06:02:20;9.90;99.90
51035;DHT22;37062;52.546;13.230;2024-03-23T06:04:47;9.90;99.90
51035;DHT22;37062;52.546;13.230;2024-03-23T06:07:15;9.90;99.90
51035;DHT22;37062;52.546;13.230;2024-03-23T06:09:42;10.00;99.90
51035;DHT22;37062;52.546;13.230;2024-03-23T06:12:09;10.00;99.90
51035;DHT22;37062;52.546;13.230;2024-03-23T06:14:36;10.00;99.90
51035;DHT22;37062;52.546;13.230;2024-03-23T06:17:02;10.10;99.90
51035;DHT22;37062;52.546;13.230;2024-03-23T06:19:30;10.00;99.90
51035;DHT22;37062;52.546;13.230;2024-03-23T06:21:56;10.10;99.90
51035;DHT22;37062;52.546;13.230;2024-03-23T06:24:25;10.10;99.90
51035;DHT22;37062;52.546;13.230;2024-03-23T06:26:51;10.20;99.90
51035;DHT22;37062;52.546;13.230;2024-03-23T06:29:19;10.10;99.90
51035;DHT22;37062;52.546;13.230;2024-03-23T06:31:53;9.90;99.90
51035;DHT22;37062;52.546;13.230;2024-03-23T06:34:20;9.80;99.90
51035;DHT22;37062;52.546;13.230;2024-03-23T06:36:48;9.90;99.90
51035;DHT22;37062;52.546;13.230;2024-03-23T06:39:16;9.80;99.90
51035;DHT22;37062;52.546;13.230;2024-03-23T06:41:51;9.70;99.90
51035;DHT22;37062;52.546;13.230;2024-03-23T06:44:19;9.60;99.90
51035;DHT22;37062;52.546;13.230;2024-03-23T06:46:45;9.60;99.90
51035;DHT22;37062;52.546;13.230;2024-03-23T06:49:13;9.60;99.90
51035;DHT22;37062;52.546;13.230;2024-03-23T06:51:40;9.60;99.90
51035;DHT22;37062;52.546;13.230;2024-03-23T06:54:08;9.70;99.90
51035;DHT22;37062;52.546;13.230;2024-03-23T06:56:34;9.80;99.90
51035;DHT22;37062;52.546;13.230;2024-03-23T06:59:03;9.80;99.90
51035;DHT22;37062;52.546;13.230;2024-03-23T07:01:32;9.70;99.90
51035;DHT22;37062;52.546;13.230;2024-03-23T07:04:01;9.70;99.90
51035;DHT22;37062;52.546;13.230;2024-03-23T07:06:29;9.60;99.90
51035;DHT22;37062;52.546;13.230;2024-03-23T07:08:57;9.60;99.90
51035;DHT22;37062;52.546;13.230;2024-03-23T07:11:23;9.70;99.90
51035;DHT22;37062;52.546;13.230;2024-03-23T07:13:53;9.70;99.90
51035;DHT22;37062;52.546;13.230;2024-03-23T07:16:24;9.90;99.90
51035;DHT22;37062;52.546;13.230;2024-03-23T07:18:57;9.80;99.90
51035;DHT22;37062;52.546;13.230;2024-03-23T07:21:28;9.90;99.90
51035;DHT22;37062;52.546;13.230;2024-03-23T07:23:57;9.80;99.90
51035;DHT22;37062;52.546;13.230;2024-03-23T07:26:24;9.80;99.90
51035;DHT22;37062;52.546;13.230;2024-03-23T07:28:57;9.90;99.90
51035;DHT22;37062;52.546;13.230;2024-03-23T07:31:24;10.00;99.90
51035;DHT22;37062;52.546;13.230;2024-03-23T07:33:52;10.00;99.90
51035;DHT22;37062;52.546;13.230;2024-03-23T07:36:18;10.00;99.90
51035;DHT22;37062;52.546;13.230;2024-03-23T07:39:02;9.90;99.90
51035;DHT22;37062;52.546;13.230;2024-03-23T07:41:34;9.90;99.90
51035;DHT22;37062;52.546;13.230;2024-03-23T07:44:05;9.80;99.90
51035;DHT22;37062;52.546;13.230;2024-03-23T07:46:37;9.80;99.90
51035;DHT22;37062;52.546;13.230;2024-03-23T07:49:04;9.80;99.90
51035;DHT22;37062;52.546;13.230;2024-03-23T07:51:31;9.80;99.90
51035;DHT22;37062;52.546;13.230;2024-03-23T07:53:58;9.50;99.90
51035;DHT22;37062;52.546;13.230;2024-03-23T07:56:29;9.30;99.90
51035;DHT22;37062;52.546;13.230;2024-03-23T07:58:55;9.20;99.90
51035;DHT22;37062;52.546;13.230;2024-03-23T08:01:24;8.90;99.90
51035;DHT22;37062;52.546;13.230;2024-03-23T08:03:52;8.90;99.90
51035;DHT22;37062;52.546;13.230;2024-03-23T08:06:20;8.90;99.90
51035;DHT22;37062;52.546;13.230;2024-03-23T08:08:50;8.70;99.90
51035;DHT22;37062;52.546;13.230;2024-03-23T08:11:25;8.50;99.90
51035;DHT22;37062;52.546;13.230;2024-03-23T08:13:52;8.50;99.90
51035;DHT22;37062;52.546;13.230;2024-03-23T08:16:19;8.50;99.90
51035;DHT22;37062;52.546;13.230;2024-03-23T08:18:45;8.30;99.90
51035;DHT22;37062;52.546;13.230;2024-03-23T08:21:14;8.30;99.90
51035;DHT22;37062;52.546;13.230;2024-03-23T08:23:41;8.20;99.90
51035;DHT22;37062;52.546;13.230;2024-03-23T08:26:11;8.30;99.90
51035;DHT22;37062;52.546;13.230;2024-03-23T08:28:37;8.30;99.90
51035;DHT22;37062;52.546;13.230;2024-03-23T08:31:06;8.30;99.90
51035;DHT22;37062;52.546;13.230;2024-03-23T08:33:33;8.30;99.90
51035;DHT22;37062;52.546;13.230;2024-03-23T08:36:02;8.30;99.90
51035;DHT22;37062;52.546;13.230;2024-03-23T08:38:32;8.20;99.90
51035;DHT22;37062;52.546;13.230;2024-03-23T08:40:58;8.10;99.90
51035;DHT22;37062;52.546;13.230;2024-03-23T08:43:26;8.00;99.90
51035;DHT22;37062;52.546;13.230;2024-03-23T08:46:02;8.00;99.90
51035;DHT22;37062;52.546;13.230;2024-03-23T08:48:30;8.00;99.90
51035;DHT22;37062;52.546;13.230;2024-03-23T08:51:00;8.00;99.90
51035;DHT22;37062;52.546;13.230;2024-03-23T08:53:28;8.10;99.90
51035;DHT22;37062;52.546;13.230;2024-03-23T08:55:56;8.10;99.90
51035;DHT22;37062;52.546;13.230;2024-03-23T08:58:25;8.00;99.90
51035;DHT22;37062;52.546;13.230;2024-03-23T09:00:51;8.10;99.90
51035;DHT22;37062;52.546;13.230;2024-03-23T09:03:23;8.10;99.90
51035;DHT22;37062;52.546;13.230;2024-03-23T09:05:50;8.00;99.90
51035;DHT22;37062;52.546;13.230;2024-03-23T09:08:18;7.90;99.90
51035;DHT22;37062;52.546;13.230;2024-03-23T09:10:46;8.00;99.90
51035;DHT22;37062;52.546;13.230;2024-03-23T09:13:18;8.00;99.90
51035;DHT22;37062;52.546;13.230;2024-03-23T09:15:49;8.20;99.90
51035;DHT22;37062;52.546;13.230;2024-03-23T09:18:17;8.20;99.90
51035;DHT22;37062;52.546;13.230;2024-03-23T09:20:43;8.30;99.90
51035;DHT22;37062;52.546;13.230;2024-03-23T09:23:10;8.40;99.90
51035;DHT22;37062;52.546;13.230;2024-03-23T09:25:37;8.40;99.90
51035;DHT22;37062;52.546;13.230;2024-03-23T09:28:06;8.30;99.90
51035;DHT22;37062;52.546;13.230;2024-03-23T09:30:34;8.40;99.90
51035;DHT22;37062;52.546;13.230;2024-03-23T09:33:02;8.40;99.90
51035;DHT22;37062;52.546;13.230;2024-03-23T09:35:29;8.50;99.90
51035;DHT22;37062;52.546;13.230;2024-03-23T09:37:57;8.60;99.90
51035;DHT22;37062;52.546;13.230;2024-03-23T09:40:23;8.50;99.90
51035;DHT22;37062;52.546;13.230;2024-03-23T09:42:52;8.40;99.90
51035;DHT22;37062;52.546;13.230;2024-03-23T09:45:21;8.40;99.90
51035;DHT22;37062;52.546;13.230;2024-03-23T09:47:50;8.20;99.90
51035;DHT22;37062;52.546;13.230;2024-03-23T09:50:17;8.20;99.90
51035;DHT22;37062;52.546;13.230;2024-03-23T09:52:46;8.20;99.90
51035;DHT22;37062;52.546;13.230;2024-03-23T09:55:12;8.30;99.90
51035;DHT22;37062;52.546;13.230;2024-03-23T09:57:40;8.30;99.90
51035;DHT22;37062;52.546;13.230;2024-03-23T10:00:07;8.40;99.90
51035;DHT22;37062;52.546;13.230;2024-03-23T10:02:36;8.30;99.90
51035;DHT22;37062;52.546;13.230;2024-03-23T10:05:05;8.20;99.90
51035;DHT22;37062;52.546;13.230;2024-03-23T10:07:48;8.20;99.90
51035;DHT22;37062;52.546;13.230;2024-03-23T10:10:16;8.30;99.90
51035;DHT22;37062;52.546;13.230;2024-03-23T10:12:47;8.40;99.90
51035;DHT22;37062;52.546;13.230;2024-03-23T10:15:19;8.50;99.90
51035;DHT22;37062;52.546;13.230;2024-03-23T10:17:47;8.60;99.90
51035;DHT22;37062;52.546;13.230;2024-03-23T10:20:19;8.60;99.90
51035;DHT22;37062;52.546;13.230;2024-03-23T10:22:50;8.80;99.90
51035;DHT22;37062;52.546;13.230;2024-03-23T10:25:22;8.90;99.90
51035;DHT22;37062;52.546;13.230;2024-03-23T10:27:58;8.90;99.90
51035;DHT22;37062;52.546;13.230;2024-03-23T10:30:25;9.00;99.90
51035;DHT22;37062;52.546;13.230;2024-03-23T10:33:07;9.00;99.90
51035;DHT22;37062;52.546;13.230;2024-03-23T10:35:36;9.00;99.90
51035;DHT22;37062;52.546;13.230;2024-03-23T10:38:05;9.00;99.90
51035;DHT22;37062;52.546;13.230;2024-03-23T10:40:34;9.00;99.90
51035;DHT22;37062;52.546;13.230;2024-03-23T10:43:03;9.00;99.90
51035;DHT22;37062;52.546;13.230;2024-03-23T10:45:30;9.00;99.90
51035;DHT22;37062;52.546;13.230;2024-03-23T10:47:58;9.10;99.90
51035;DHT22;37062;52.546;13.230;2024-03-23T10:50:24;9.20;99.90
51035;DHT22;37062;52.546;13.230;2024-03-23T10:52:54;9.30;99.90
51035;DHT22;37062;52.546;13.230;2024-03-23T10:55:25;9.40;99.90
51035;DHT22;37062;52.546;13.230;2024-03-23T10:57:55;9.50;99.90
51035;DHT22;37062;52.546;13.230;2024-03-23T11:00:22;9.60;99.90
51035;DHT22;37062;52.546;13.230;2024-03-23T11:02:50;9.60;99.90
51035;DHT22;37062;52.546;13.230;2024-03-23T11:05:31;9.70;99.90
51035;DHT22;37062;52.546;13.230;2024-03-23T11:08:01;9.80;99.90
51035;DHT22;37062;52.546;13.230;2024-03-23T11:10:30;9.80;99.90
51035;DHT22;37062;52.546;13.230;2024-03-23T11:13:22;9.90;99.90
51035;DHT22;37062;52.546;13.230;2024-03-23T11:15:48;10.00;99.90
51035;DHT22;37062;52.546;13.230;2024-03-23T11:18:23;10.00;99.90
51035;DHT22;37062;52.546;13.230;2024-03-23T11:20:50;10.10;99.90
51035;DHT22;37062;52.546;13.230;2024-03-23T11:23:31;10.00;99.90
51035;DHT22;37062;52.546;13.230;2024-03-23T11:25:57;10.00;99.90
51035;DHT22;37062;52.546;13.230;2024-03-23T11:28:24;10.00;99.90
51035;DHT22;37062;52.546;13.230;2024-03-23T11:30:51;10.10;99.90
51035;DHT22;37062;52.546;13.230;2024-03-23T11:33:18;10.10;99.90
51035;DHT22;37062;52.546;13.230;2024-03-23T11:35:45;10.30;99.90
51035;DHT22;37062;52.546;13.230;2024-03-23T11:38:14;10.30;99.90
51035;DHT22;37062;52.546;13.230;2024-03-23T11:40:43;10.50;99.90
51035;DHT22;37062;52.546;13.230;2024-03-23T11:43:13;10.60;99.90
51035;DHT22;37062;52.546;13.230;2024-03-23T11:45:41;10.70;99.90
51035;DHT22;37062;52.546;13.230;2024-03-23T11:48:10;10.80;99.90
51035;DHT22;37062;52.546;13.230;2024-03-23T11:50:38;10.90;99.90
51035;DHT22;37062;52.546;13.230;2024-03-23T11:53:08;11.00;99.90
51035;DHT22;37062;52.546;13.230;2024-03-23T11:55:46;11.10;99.90
51035;DHT22;37062;52.546;13.230;2024-03-23T11:58:15;11.10;99.90
51035;DHT22;37062;52.546;13.230;2024-03-23T12:00:42;11.10;99.90
51035;DHT22;37062;52.546;13.230;2024-03-23T12:03:10;11.00;99.90
51035;DHT22;37062;52.546;13.230;2024-03-23T12:05:37;10.80;99.90
51035;DHT22;37062;52.546;13.230;2024-03-23T12:08:22;10.50;99.90
51035;DHT22;37062;52.546;13.230;2024-03-23T12:10:51;10.40;99.90
51035;DHT22;37062;52.546;13.230;2024-03-23T12:13:29;10.40;99.90
51035;DHT22;37062;52.546;13.230;2024-03-23T12:16:09;10.30;99.90
51035;DHT22;37062;52.546;13.230;2024-03-23T12:18:37;10.30;99.90
51035;DHT22;37062;52.546;13.230;2024-03-23T12:21:04;10.30;99.90
51035;DHT22;37062;52.546;13.230;2024-03-23T12:23:32;10.40;99.90
51035;DHT22;37062;52.546;13.230;2024-03-23T12:25:59;10.40;99.90
51035;DHT22;37062;52.546;13.230;2024-03-23T12:28:27;10.50;99.90
51035;DHT22;37062;52.546;13.230;2024-03-23T12:30:54;10.60;99.90
51035;DHT22;37062;52.546;13.230;2024-03-23T12:33:21;10.60;99.90
51035;DHT22;37062;52.546;13.230;2024-03-23T12:35:48;10.70;99.90
51035;DHT22;37062;52.546;13.230;2024-03-23T12:38:16;10.70;99.90
51035;DHT22;37062;52.546;13.230;2024-03-23T12:40:42;10.60;99.90
51035;DHT22;37062;52.546;13.230;2024-03-23T12:43:14;10.70;99.90
51035;DHT22;37062;52.546;13.230;2024-03-23T12:45:41;10.80;99.90
51035;DHT22;37062;52.546;13.230;2024-03-23T12:48:17;10.90;99.90
51035;DHT22;37062;52.546;13.230;2024-03-23T12:50:45;11.10;99.90
51035;DHT22;37062;52.546;13.230;2024-03-23T12:53:12;11.10;99.90
51035;DHT22;37062;52.546;13.230;2024-03-23T12:55:38;11.10;99.90
51035;DHT22;37062;52.546;13.230;2024-03-23T12:58:08;11.10;99.90
51035;DHT22;37062;52.546;13.230;2024-03-23T13:00:36;11.10;99.90
51035;DHT22;37062;52.546;13.230;2024-03-23T13:03:07;11.20;99.90
51035;DHT22;37062;52.546;13.230;2024-03-23T13:05:41;11.20;99.90
51035;DHT22;37062;52.546;13.230;2024-03-23T13:08:09;11.20;99.90
51035;DHT22;37062;52.546;13.230;2024-03-23T13:10:38;11.20;99.90
51035;DHT22;37062;52.546;13.230;2024-03-23T13:13:05;11.40;99.90
51035;DHT22;37062;52.546;13.230;2024-03-23T13:15:37;11.50;99.90
51035;DHT22;37062;52.546;13.230;2024-03-23T13:18:08;11.50;99.90
51035;DHT22;37062;52.546;13.230;2024-03-23T13:20:37;11.50;99.90
51035;DHT22;37062;52.546;13.230;2024-03-23T13:23:04;11.70;99.90
51035;DHT22;37062;52.546;13.230;2024-03-23T13:25:33;11.80;99.90
51035;DHT22;37062;52.546;13.230;2024-03-23T13:28:00;11.90;99.90
51035;DHT22;37062;52.546;13.230;2024-03-23T13:30:27;11.80;99.90
51035;DHT22;37062;52.546;13.230;2024-03-23T13:32:58;11.80;99.90
51035;DHT22;37062;52.546;13.230;2024-03-23T13:35:25;11.70;99.90
51035;DHT22;37062;52.546;13.230;2024-03-23T13:37:52;11.60;99.90
51035;DHT22;37062;52.546;13.230;2024-03-23T13:40:19;11.50;99.90
51035;DHT22;37062;52.546;13.230;2024-03-23T13:42:46;11.60;99.90
51035;DHT22;37062;52.546;13.230;2024-03-23T13:45:13;11.70;99.90
51035;DHT22;37062;52.546;13.230;2024-03-23T13:47:43;11.80;99.90
51035;DHT22;37062;52.546;13.230;2024-03-23T13:50:11;12.10;99.90
51035;DHT22;37062;52.546;13.230;2024-03-23T13:52:38;12.20;99.90
51035;DHT22;37062;52.546;13.230;2024-03-23T13:55:07;12.30;99.90
51035;DHT22;37062;52.546;13.230;2024-03-23T13:57:37;12.20;99.90
51035;DHT22;37062;52.546;13.230;2024-03-23T14:00:07;12.10;99.90
51035;DHT22;37062;52.546;13.230;2024-03-23T14:02:40;12.00;99.90
51035;DHT22;37062;52.546;13.230;2024-03-23T14:05:07;12.00;99.90
51035;DHT22;37062;52.546;13.230;2024-03-23T14:07:36;12.00;99.90
51035;DHT22;37062;52.546;13.230;2024-03-23T14:10:03;11.80;99.90
51035;DHT22;37062;52.546;13.230;2024-03-23T14:12:32;11.80;99.90
51035;DHT22;37062;52.546;13.230;2024-03-23T14:14:58;11.70;99.90
51035;DHT22;37062;52.546;13.230;2024-03-23T14:17:26;11.60;99.90
51035;DHT22;37062;52.546;13.230;2024-03-23T14:19:53;11.40;99.90
51035;DHT22;37062;52.546;13.230;2024-03-23T14:22:20;11.40;99.90
51035;DHT22;37062;52.546;13.230;2024-03-23T14:24:50;11.30;99.90
51035;DHT22;37062;52.546;13.230;2024-03-23T14:27:17;11.30;99.90
51035;DHT22;37062;52.546;13.230;2024-03-23T14:29:45;11.30;99.90
51035;DHT22;37062;52.546;13.230;2024-03-23T14:32:13;11.30;99.90
51035;DHT22;37062;52.546;13.230;2024-03-23T14:34:40;11.30;99.90
51035;DHT22;37062;52.546;13.230;2024-03-23T14:37:08;11.30;99.90
51035;DHT22;37062;52.546;13.230;2024-03-23T14:39:34;11.30;99.90
51035;DHT22;37062;52.546;13.230;2024-03-23T14:42:05;11.20;99.90
51035;DHT22;37062;52.546;13.230;2024-03-23T14:44:32;11.00;99.90
51035;DHT22;37062;52.546;13.230;2024-03-23T14:47:00;10.80;99.90
51035;DHT22;37062;52.546;13.230;2024-03-23T14:49:26;10.60;99.90
51035;DHT22;37062;52.546;13.230;2024-03-23T14:51:54;10.40;99.90
51035;DHT22;37062;52.546;13.230;2024-03-23T14:54:20;10.30;99.90
51035;DHT22;37062;52.546;13.230;2024-03-23T14:56:50;10.30;99.90
51035;DHT22;37062;52.546;13.230;2024-03-23T14:59:18;10.30;99.90
51035;DHT22;37062;52.546;13.230;2024-03-23T15:01:45;10.50;99.90
51035;DHT22;37062;52.546;13.230;2024-03-23T15:04:12;10.70;99.90
51035;DHT22;37062;52.546;13.230;2024-03-23T15:06:40;10.80;99.90
51035;DHT22;37062;52.546;13.230;2024-03-23T15:09:06;10.80;99.90
51035;DHT22;37062;52.546;13.230;2024-03-23T15:11:37;10.70;99.90
51035;DHT22;37062;52.546;13.230;2024-03-23T15:14:03;10.50;99.90
51035;DHT22;37062;52.546;13.230;2024-03-23T15:16:34;10.40;99.90
51035;DHT22;37062;52.546;13.230;2024-03-23T15:19:00;10.30;99.90
51035;DHT22;37062;52.546;13.230;2024-03-23T15:21:28;10.20;99.90
51035;DHT22;37062;52.546;13.230;2024-03-23T15:23:57;10.20;99.90
51035;DHT22;37062;52.546;13.230;2024-03-23T15:26:24;10.20;99.90
51035;DHT22;37062;52.546;13.230;2024-03-23T15:28:51;10.20;99.90
51035;DHT22;37062;52.546;13.230;2024-03-23T15:31:33;10.10;99.90
51035;DHT22;37062;52.546;13.230;2024-03-23T15:34:01;10.10;99.90
51035;DHT22;37062;52.546;13.230;2024-03-23T15:36:28;10.10;99.90
51035;DHT22;37062;52.546;13.230;2024-03-23T15:38:55;10.00;99.90
51035;DHT22;37062;52.546;13.230;2024-03-23T15:41:21;9.90;99.90
51035;DHT22;37062;52.546;13.230;2024-03-23T15:43:50;9.90;99.90
51035;DHT22;37062;52.546;13.230;2024-03-23T15:46:16;9.90;99.90
51035;DHT22;37062;52.546;13.230;2024-03-23T15:48:46;9.90;99.90
51035;DHT22;37062;52.546;13.230;2024-03-23T15:51:13;9.90;99.90
51035;DHT22;37062;52.546;13.230;2024-03-23T15:53:40;9.90;99.90
51035;DHT22;37062;52.546;13.230;2024-03-23T15:56:07;9.90;99.90
51035;DHT22;37062;52.546;13.230;2024-03-23T15:58:35;9.90;99.90
51035;DHT22;37062;52.546;13.230;2024-03-23T16:01:02;9.80;99.90
51035;DHT22;37062;52.546;13.230;2024-03-23T16:03:30;9.80;99.90
51035;DHT22;37062;52.546;13.230;2024-03-23T16:06:00;9.70;99.90
51035;DHT22;37062;52.546;13.230;2024-03-23T16:08:29;9.70;99.90
51035;DHT22;37062;52.546;13.230;2024-03-23T16:10:59;9.80;99.90
51035;DHT22;37062;52.546;13.230;2024-03-23T16:13:27;9.80;99.90
51035;DHT22;37062;52.546;13.230;2024-03-23T16:15:57;9.70;99.90
51035;DHT22;37062;52.546;13.230;2024-03-23T16:18:25;9.60;99.90
51035;DHT22;37062;52.546;13.230;2024-03-23T16:20:53;9.60;99.90
51035;DHT22;37062;52.546;13.230;2024-03-23T16:23:22;9.60;99.90